Minneapolis, Minnesota
Traffic Map
Current Weather Conditions
Minneapolis, Minnesota
Overcast Thunderstorm
Overcast
70°
Feels Like: 70°
Wind Chill: 70° Ceiling: 10000
Heat Index: 70° Visibility: 10mi
Dew Point: 65° Wind: 13mph
Humidity: 84% Direction: 130° (SE)
Pressure: 29.9in Gusts: 0mph
Raw Report DataKMSP 250139Z 13011KT 10SM VCTS -RA SCT070CB BKN100 BKN110 OVC250 21/18 A2990 RMK AO2 LTG DSNT NE-S TSE35 FRQ LTGICCG VC E-SE VCTS E-SE MOV E P0005 T02110183
Traffic Incident Summary
Active as of:
Severity:
Category:
InformationThere was an issue retrieving the traffic information for this location. Please try a different location or try again shortly.
Advertisements